createdAt,value
2024-01-06T00:02:09.937Z,99447.79
2024-01-06T00:04:38.462Z,99456.13
2024-01-06T00:07:07.071Z,99460.38
2024-01-06T00:09:35.649Z,99459.27
2024-01-06T00:12:04.813Z,99454.49
2024-01-06T00:14:33.340Z,99438.52
2024-01-06T00:17:01.944Z,99449.48
2024-01-06T00:19:30.588Z,99439.92
2024-01-06T00:21:59.144Z,99440.79
2024-01-06T00:24:27.705Z,99447.88
2024-01-06T00:26:56.998Z,99452.41
2024-01-06T00:29:25.849Z,99455.64
2024-01-06T00:31:54.365Z,99454.89
2024-01-06T00:34:23.589Z,99450.54
2024-01-06T00:36:52.290Z,99447.69
2024-01-06T00:39:21.856Z,99441.77
2024-01-06T00:41:50.473Z,99446.91
2024-01-06T00:44:18.992Z,99447.61
2024-01-06T00:46:47.536Z,99448.27
2024-01-06T00:49:16.260Z,99450.52
2024-01-06T00:51:44.788Z,99446.52
2024-01-06T00:54:13.573Z,99439.53
2024-01-06T00:56:43.664Z,99436.21
2024-01-06T00:59:12.123Z,99436.45
2024-01-06T01:01:42.447Z,99433.18
2024-01-06T01:04:12.318Z,99435.61
2024-01-06T01:06:41.821Z,99432.35
2024-01-06T01:09:14.616Z,99430.93
2024-01-06T01:11:43.785Z,99426.29
2024-01-06T01:14:12.469Z,99422.80
2024-01-06T01:16:40.981Z,99419.02
2024-01-06T01:19:09.614Z,99421.29
2024-01-06T01:21:38.280Z,99417.96
2024-01-06T01:24:06.939Z,99413.57
2024-01-06T01:26:35.519Z,99410.41
2024-01-06T01:29:04.080Z,99408.69
2024-01-06T01:31:32.920Z,99402.45
2024-01-06T01:34:01.820Z,99399.65
2024-01-06T01:36:30.685Z,99389.20
2024-01-06T01:38:59.907Z,99372.76
2024-01-06T01:41:29.906Z,99379.23
2024-01-06T01:44:01.578Z,99379.18
2024-01-06T01:46:31.352Z,99372.23
2024-01-06T01:49:02.826Z,99369.73
2024-01-06T01:51:35.551Z,99360.65
2024-01-06T01:54:06.783Z,99355.46
2024-01-06T01:56:36.052Z,99349.89
2024-01-06T01:59:12.115Z,99353.55
2024-01-06T02:01:44.110Z,99350.64
2024-01-06T02:04:14.686Z,99354.81
2024-01-06T02:06:43.385Z,99349.48
2024-01-06T02:09:12.623Z,99352.20
2024-01-06T02:11:41.120Z,99343.58
2024-01-06T02:14:09.875Z,99343.10
2024-01-06T02:16:38.463Z,99345.48
2024-01-06T02:19:12.249Z,99340.00
2024-01-06T02:21:45.546Z,99338.98
2024-01-06T02:24:15.002Z,99339.44
2024-01-06T02:26:44.646Z,99336.11
2024-01-06T02:29:13.311Z,99332.41
2024-01-06T02:31:41.881Z,99335.60
2024-01-06T02:34:10.597Z,99328.61
2024-01-06T02:36:39.240Z,99327.95
2024-01-06T02:39:07.940Z,99330.04
2024-01-06T02:41:36.493Z,99333.55
2024-01-06T02:44:05.491Z,99328.48
2024-01-06T02:46:34.079Z,99323.10
2024-01-06T02:49:02.814Z,99327.31
2024-01-06T02:51:31.553Z,99324.54
2024-01-06T02:54:00.185Z,99327.99
2024-01-06T02:56:28.701Z,99321.94
2024-01-06T02:58:58.148Z,99318.90
2024-01-06T03:01:27.080Z,99312.02
2024-01-06T03:03:55.746Z,99312.27
2024-01-06T03:06:24.536Z,99306.04
2024-01-06T03:08:53.022Z,99293.26
2024-01-06T03:11:21.542Z,99297.21
2024-01-06T03:13:50.060Z,99302.78
2024-01-06T03:16:18.779Z,99301.52
2024-01-06T03:18:48.514Z,99299.73
2024-01-06T03:21:21.773Z,99298.95
2024-01-06T03:23:50.478Z,99295.23
2024-01-06T03:26:19.692Z,99291.51
2024-01-06T03:28:51.416Z,99293.50
2024-01-06T03:31:20.081Z,99284.00
2024-01-06T03:33:48.650Z,99302.05
2024-01-06T03:36:18.619Z,99298.89
2024-01-06T03:38:49.346Z,99316.66
2024-01-06T03:41:18.040Z,99319.81
2024-01-06T03:43:46.650Z,99312.55
2024-01-06T03:46:15.260Z,99313.45
2024-01-06T03:48:43.917Z,99312.26
2024-01-06T03:51:14.369Z,99306.97
2024-01-06T03:53:43.252Z,99313.52
2024-01-06T03:56:11.816Z,99315.70
2024-01-06T03:58:40.517Z,99309.98
2024-01-06T04:01:09.124Z,99308.62
2024-01-06T04:03:37.860Z,99303.84
2024-01-06T04:06:06.619Z,99303.12
2024-01-06T04:08:35.254Z,99308.03
2024-01-06T04:11:05.310Z,99304.36
2024-01-06T04:13:35.652Z,99305.61
2024-01-06T04:16:04.730Z,99315.30
2024-01-06T04:18:33.386Z,99315.47
2024-01-06T04:21:02.151Z,99315.36
2024-01-06T04:23:30.825Z,99308.58
2024-01-06T04:25:59.357Z,99314.16
2024-01-06T04:28:27.864Z,99313.85
2024-01-06T04:30:56.586Z,99308.52
2024-01-06T04:33:25.249Z,99301.47
2024-01-06T04:35:53.874Z,99301.73
2024-01-06T04:38:22.479Z,99299.74
2024-01-06T04:40:50.994Z,99303.30
2024-01-06T04:43:19.468Z,99302.17
2024-01-06T04:45:48.672Z,99297.27
2024-01-06T04:48:18.190Z,99297.06
2024-01-06T04:50:46.643Z,99291.84
2024-01-06T04:53:15.121Z,99289.98
2024-01-06T04:55:43.716Z,99290.23
2024-01-06T04:58:12.695Z,99291.84
2024-01-06T05:00:41.511Z,99284.13
2024-01-06T05:03:10.174Z,99282.86
2024-01-06T05:05:38.835Z,99278.65
2024-01-06T05:08:07.682Z,99285.55
2024-01-06T05:10:36.306Z,99281.35
2024-01-06T05:13:05.136Z,99278.14
2024-01-06T05:15:33.794Z,99269.48
2024-01-06T05:18:02.543Z,99272.65
2024-01-06T05:20:31.162Z,99271.89
2024-01-06T05:23:00.437Z,99281.89
2024-01-06T05:25:29.207Z,99282.07
2024-01-06T05:27:57.886Z,99280.03
2024-01-06T05:30:26.621Z,99281.23
2024-01-06T05:32:55.552Z,99288.02
2024-01-06T05:35:24.514Z,99287.86
2024-01-06T05:37:53.111Z,99292.96
2024-01-06T05:40:21.888Z,99293.22
2024-01-06T05:42:50.497Z,99295.26
2024-01-06T05:45:19.144Z,99288.88
2024-01-06T05:47:47.767Z,99289.06
2024-01-06T05:50:17.906Z,99291.59
2024-01-06T05:52:48.754Z,99290.30
2024-01-06T05:55:17.524Z,99294.61
2024-01-06T05:57:47.011Z,99292.02
2024-01-06T06:00:20.969Z,99285.77
2024-01-06T06:02:50.012Z,99284.90
2024-01-06T06:05:18.691Z,99282.81
2024-01-06T06:07:47.366Z,99272.30
2024-01-06T06:10:17.589Z,99271.91
2024-01-06T06:12:46.307Z,99277.23
2024-01-06T06:15:17.017Z,99289.46
2024-01-06T06:17:46.839Z,99292.84
2024-01-06T06:20:15.760Z,99292.20
2024-01-06T06:22:44.268Z,99290.30
2024-01-06T06:25:12.821Z,99297.89
2024-01-06T06:27:41.366Z,99296.73
2024-01-06T06:30:10.788Z,99286.14
2024-01-06T06:32:39.504Z,99286.96
2024-01-06T06:35:10.276Z,99281.95
2024-01-06T06:37:39.544Z,99281.23
2024-01-06T06:40:09.632Z,99279.10
2024-01-06T06:42:38.165Z,99281.20
2024-01-06T06:45:07.224Z,99278.80
2024-01-06T06:47:35.772Z,99283.73
2024-01-06T06:50:04.781Z,99287.66
2024-01-06T06:52:33.385Z,99274.52
2024-01-06T06:55:01.968Z,99289.22
2024-01-06T06:57:30.453Z,99294.94
2024-01-06T06:59:59.022Z,99292.71
2024-01-06T07:02:28.004Z,99287.64
2024-01-06T07:04:56.725Z,99279.86
2024-01-06T07:07:25.232Z,99282.40
2024-01-06T07:09:55.853Z,99279.23
2024-01-06T07:12:27.397Z,99276.83
2024-01-06T07:14:57.234Z,99282.67
2024-01-06T07:17:26.693Z,99279.30
2024-01-06T07:19:55.435Z,99266.30
2024-01-06T07:22:24.021Z,99255.13
2024-01-06T07:24:52.756Z,99264.85
2024-01-06T07:27:22.138Z,99261.86
2024-01-06T07:29:50.826Z,99273.14
2024-01-06T07:32:19.552Z,99263.91
2024-01-06T07:34:48.164Z,99264.77
2024-01-06T07:37:16.917Z,99262.33
2024-01-06T07:39:45.563Z,99268.00
2024-01-06T07:42:14.227Z,99276.39
2024-01-06T07:44:42.887Z,99273.07
2024-01-06T07:47:12.830Z,99276.70
2024-01-06T07:49:42.775Z,99267.75
2024-01-06T07:52:12.798Z,99281.98
2024-01-06T07:54:41.294Z,99286.52
2024-01-06T07:57:09.905Z,99282.16
2024-01-06T07:59:38.482Z,99282.66
2024-01-06T08:02:07.428Z,99261.25
2024-01-06T08:04:36.109Z,99263.94
2024-01-06T08:07:04.998Z,99249.61
2024-01-06T08:09:33.859Z,99260.66
2024-01-06T08:12:04.632Z,99256.98
2024-01-06T08:14:33.144Z,99251.40
2024-01-06T08:17:01.685Z,99241.45
2024-01-06T08:19:32.068Z,99246.61
2024-01-06T08:22:00.855Z,99248.88
2024-01-06T08:24:31.113Z,99264.32
2024-01-06T08:26:59.680Z,99268.38
2024-01-06T08:29:28.350Z,99264.85
2024-01-06T08:31:57.081Z,99271.20
2024-01-06T08:34:26.834Z,99265.22
2024-01-06T08:36:56.672Z,99260.39
2024-01-06T08:39:26.093Z,99261.48
2024-01-06T08:41:55.451Z,99254.23
2024-01-06T08:44:25.286Z,99251.34
2024-01-06T08:46:53.841Z,99258.08
2024-01-06T08:49:22.379Z,99249.69
2024-01-06T08:51:51.025Z,99251.65
2024-01-06T08:54:19.799Z,99261.16
2024-01-06T08:56:48.689Z,99258.46
2024-01-06T08:59:17.172Z,99263.77
2024-01-06T09:01:48.733Z,99262.11
2024-01-06T09:04:20.375Z,99252.90
2024-01-06T09:06:49.066Z,99247.36
2024-01-06T09:09:17.841Z,99246.25
2024-01-06T09:11:47.652Z,99236.20
2024-01-06T09:14:16.983Z,99231.02
2024-01-06T09:16:45.535Z,99228.92
2024-01-06T09:19:14.427Z,99225.88
2024-01-06T09:21:43.072Z,99221.86
2024-01-06T09:24:11.690Z,99221.20
2024-01-06T09:26:40.574Z,99217.41
2024-01-06T09:29:10.308Z,99200.89
2024-01-06T09:31:40.340Z,99204.24
2024-01-06T09:34:11.610Z,99204.20
2024-01-06T09:36:40.387Z,99196.52
2024-01-06T09:39:09.615Z,99195.90
2024-01-06T09:41:39.368Z,99192.11
2024-01-06T09:44:09.613Z,99190.12
2024-01-06T09:46:41.777Z,99189.64
2024-01-06T09:49:10.626Z,99182.76
2024-01-06T09:51:40.938Z,99178.77
2024-01-06T09:54:15.437Z,99175.59
2024-01-06T09:56:46.812Z,99163.08
2024-01-06T09:59:16.631Z,99155.05
2024-01-06T10:01:46.471Z,99164.69
2024-01-06T10:04:19.703Z,99159.58
2024-01-06T10:06:50.902Z,99153.52
2024-01-06T10:09:19.575Z,99148.75
2024-01-06T10:11:48.119Z,99152.06
2024-01-06T10:14:16.722Z,99154.96
2024-01-06T10:16:45.426Z,99149.21
2024-01-06T10:19:14.677Z,99151.98
2024-01-06T10:21:43.841Z,99145.45
2024-01-06T10:24:12.932Z,99151.27
2024-01-06T10:26:41.553Z,99149.70
2024-01-06T10:29:10.310Z,99149.16
2024-01-06T10:31:38.979Z,99146.02
2024-01-06T10:34:08.234Z,99142.73
2024-01-06T10:36:37.736Z,99131.98
2024-01-06T10:39:13.599Z,99124.42
2024-01-06T10:41:43.844Z,99109.23
2024-01-06T10:44:14.198Z,99103.59
2024-01-06T10:46:43.627Z,99099.91
2024-01-06T10:49:13.860Z,99096.27
2024-01-06T10:51:42.736Z,99083.83
2024-01-06T10:54:14.559Z,99075.20
2024-01-06T10:56:44.708Z,99088.23
2024-01-06T10:59:14.992Z,99087.66
2024-01-06T11:01:45.717Z,99089.24
2024-01-06T11:04:15.552Z,99087.41
2024-01-06T11:06:44.506Z,99075.41
2024-01-06T11:09:29.599Z,99078.02
2024-01-06T11:11:58.811Z,99072.23
2024-01-06T11:14:34.518Z,99061.84
2024-01-06T11:17:03.064Z,99056.42
2024-01-06T11:19:38.632Z,99046.83
2024-01-06T11:22:40.866Z,99048.23
2024-01-06T11:25:16.538Z,99033.85
2024-01-06T11:27:48.957Z,99036.99
2024-01-06T11:30:27.617Z,99036.67
2024-01-06T11:33:00.333Z,99025.92
2024-01-06T11:35:31.234Z,99019.60
2024-01-06T11:38:05.076Z,99027.05
2024-01-06T11:40:38.489Z,99026.75
2024-01-06T11:43:13.589Z,99019.20
2024-01-06T11:46:08.633Z,99021.41
2024-01-06T11:48:38.161Z,99015.33
2024-01-06T11:51:06.717Z,99005.17
2024-01-06T11:53:35.505Z,99006.20
2024-01-06T11:56:06.012Z,99007.48
2024-01-06T11:58:35.065Z,99014.83
2024-01-06T12:01:03.909Z,99011.09
2024-01-06T12:03:32.637Z,99018.56
2024-01-06T12:06:04.713Z,99012.21
2024-01-06T12:08:34.488Z,99016.92
2024-01-06T12:11:05.513Z,99020.20
2024-01-06T12:13:34.974Z,99012.16
2024-01-06T12:16:03.791Z,99010.60
2024-01-06T12:18:32.470Z,99012.89
2024-01-06T12:21:01.188Z,99013.09
2024-01-06T12:23:30.210Z,99015.21
2024-01-06T12:25:58.873Z,99013.33
2024-01-06T12:28:28.685Z,99012.98
2024-01-06T12:30:57.784Z,99005.92
2024-01-06T12:33:42.642Z,99005.34
2024-01-06T12:36:21.165Z,98986.59
2024-01-06T12:38:57.518Z,99001.92
2024-01-06T12:41:26.068Z,98999.05
2024-01-06T12:43:54.641Z,99000.46
2024-01-06T12:46:23.714Z,99001.23
2024-01-06T12:48:52.627Z,99005.35
2024-01-06T12:51:21.256Z,99006.05
2024-01-06T12:53:50.329Z,99014.58
2024-01-06T12:56:19.698Z,99002.54
2024-01-06T12:58:49.922Z,99000.80
2024-01-06T13:01:19.073Z,99004.09
2024-01-06T13:03:47.878Z,99009.71
2024-01-06T13:06:17.447Z,99008.77
2024-01-06T13:08:46.058Z,98996.34
2024-01-06T13:11:14.837Z,98998.65
2024-01-06T13:13:43.455Z,98998.11
2024-01-06T13:16:12.606Z,98998.48
2024-01-06T13:18:41.675Z,98990.84
2024-01-06T13:21:10.318Z,98984.55
2024-01-06T13:23:39.069Z,98985.80
2024-01-06T13:26:08.345Z,98983.48
2024-01-06T13:28:37.488Z,98988.66
2024-01-06T13:31:09.701Z,98992.36
2024-01-06T13:33:38.958Z,98990.02
2024-01-06T13:36:08.126Z,98992.77
2024-01-06T13:38:36.703Z,98984.81
2024-01-06T13:41:05.546Z,98987.84
2024-01-06T13:43:34.883Z,98995.98
2024-01-06T13:46:04.210Z,99002.61
2024-01-06T13:48:32.947Z,99008.37
2024-01-06T13:51:01.529Z,99007.31
2024-01-06T13:53:30.373Z,99004.30
2024-01-06T13:55:58.931Z,99000.19
2024-01-06T13:58:27.665Z,98994.63
2024-01-06T14:00:56.290Z,98997.73
2024-01-06T14:03:25.016Z,98996.72
2024-01-06T14:05:56.271Z,99004.47
2024-01-06T14:08:26.328Z,99000.96
2024-01-06T14:10:55.218Z,99011.27
2024-01-06T14:13:23.948Z,99008.88
2024-01-06T14:15:52.698Z,99007.04
2024-01-06T14:18:21.284Z,99007.25
2024-01-06T14:20:49.978Z,99009.77
2024-01-06T14:23:18.501Z,98992.27
2024-01-06T14:25:47.245Z,98994.11
2024-01-06T14:28:15.742Z,98993.84
2024-01-06T14:30:44.485Z,98993.98
2024-01-06T14:33:13.126Z,98985.96
2024-01-06T14:35:43.202Z,98998.27
2024-01-06T14:38:12.731Z,98997.21
2024-01-06T14:40:41.564Z,98996.44
2024-01-06T14:43:12.308Z,99000.67
2024-01-06T14:45:42.138Z,99000.09
2024-01-06T14:48:11.827Z,99000.63
2024-01-06T14:50:40.530Z,99003.11
2024-01-06T14:53:09.891Z,99009.92
2024-01-06T14:55:39.307Z,99018.36
2024-01-06T14:58:09.842Z,99011.20
2024-01-06T15:00:38.629Z,99009.13
2024-01-06T15:03:07.349Z,99003.81
2024-01-06T15:05:36.157Z,99009.94
2024-01-06T15:08:05.222Z,98994.89
2024-01-06T15:10:33.693Z,98993.00
2024-01-06T15:13:02.309Z,98994.14
2024-01-06T15:15:30.888Z,99005.49
2024-01-06T15:17:59.651Z,98999.06
2024-01-06T15:20:30.222Z,98996.52
2024-01-06T15:22:59.215Z,98996.40
2024-01-06T15:25:29.602Z,98997.98
2024-01-06T15:27:58.121Z,98993.84
2024-01-06T15:30:26.686Z,98992.52
2024-01-06T15:32:55.352Z,98989.41
2024-01-06T15:35:24.488Z,98980.05
2024-01-06T15:37:53.544Z,98994.92
2024-01-06T15:40:22.221Z,98995.30
2024-01-06T15:42:50.826Z,99003.73
2024-01-06T15:45:19.438Z,98988.27
2024-01-06T15:47:48.036Z,99000.67
2024-01-06T15:50:16.761Z,98994.98
2024-01-06T15:52:47.207Z,98992.14
2024-01-06T15:55:17.097Z,99001.30
2024-01-06T15:57:46.458Z,99000.08
2024-01-06T16:00:15.775Z,99002.03
2024-01-06T16:02:44.369Z,99006.20
2024-01-06T16:05:14.868Z,99013.70
2024-01-06T16:07:43.599Z,99010.88
2024-01-06T16:10:12.838Z,99002.58
2024-01-06T16:13:01.652Z,98995.17
2024-01-06T16:15:30.824Z,99003.33
2024-01-06T16:17:59.467Z,98997.61
2024-01-06T16:20:28.063Z,98988.74
2024-01-06T16:22:57.912Z,98991.55
2024-01-06T16:25:26.806Z,98995.27
2024-01-06T16:27:56.315Z,98977.55
2024-01-06T16:30:25.010Z,98974.52
2024-01-06T16:32:53.808Z,98976.61
2024-01-06T16:35:22.546Z,98974.49
2024-01-06T16:37:52.647Z,98983.33
2024-01-06T16:40:21.165Z,98995.44
2024-01-06T16:42:53.348Z,98995.11
2024-01-06T16:45:22.021Z,98990.64
2024-01-06T16:47:50.758Z,98986.12
2024-01-06T16:50:19.304Z,98985.03
2024-01-06T16:52:47.959Z,98998.73
2024-01-06T16:55:16.764Z,98999.67
2024-01-06T16:57:45.341Z,99004.80
2024-01-06T17:00:14.550Z,99004.16
2024-01-06T17:02:43.079Z,99009.19
2024-01-06T17:05:11.846Z,98991.72
2024-01-06T17:07:45.827Z,99000.27
2024-01-06T17:10:17.778Z,98995.89
2024-01-06T17:12:46.193Z,98999.45
2024-01-06T17:15:15.229Z,99006.16
2024-01-06T17:17:44.267Z,99011.75
2024-01-06T17:20:13.014Z,98999.79
2024-01-06T17:22:43.462Z,98996.05
2024-01-06T17:25:16.146Z,98996.50
2024-01-06T17:27:48.943Z,98993.59
2024-01-06T17:30:18.942Z,98995.58
2024-01-06T17:32:47.639Z,98983.02
2024-01-06T17:35:16.454Z,98991.77
2024-01-06T17:37:45.100Z,98991.38
2024-01-06T17:40:14.425Z,98985.70
2024-01-06T17:42:43.043Z,98977.34
2024-01-06T17:45:12.039Z,98976.73
2024-01-06T17:47:42.437Z,98984.18
2024-01-06T17:50:11.423Z,98984.77
2024-01-06T17:52:42.554Z,98983.75
2024-01-06T17:55:11.776Z,98986.05
2024-01-06T17:57:40.606Z,98981.98
2024-01-06T18:00:10.650Z,98977.20
2024-01-06T18:02:39.823Z,98973.25
2024-01-06T18:05:09.701Z,98966.25
2024-01-06T18:07:38.576Z,98962.48
2024-01-06T18:10:09.940Z,98948.50
2024-01-06T18:12:40.328Z,98946.05
2024-01-06T18:15:09.199Z,98951.25
2024-01-06T18:17:39.728Z,98950.69
2024-01-06T18:20:09.693Z,98951.87
2024-01-06T18:22:38.238Z,98952.05
2024-01-06T18:25:07.459Z,98942.85
2024-01-06T18:27:36.032Z,98947.98
2024-01-06T18:30:05.377Z,98948.77
2024-01-06T18:32:34.464Z,98951.27
2024-01-06T18:35:03.607Z,98945.65
2024-01-06T18:37:32.433Z,98949.89
2024-01-06T18:40:01.196Z,98953.28
2024-01-06T18:42:29.871Z,98942.92
2024-01-06T18:44:58.659Z,98947.46
2024-01-06T18:47:27.351Z,98931.60
2024-01-06T18:49:57.048Z,98943.10
2024-01-06T18:52:25.830Z,98941.41
2024-01-06T18:54:54.433Z,98933.49
2024-01-06T18:57:23.014Z,98934.90
2024-01-06T18:59:52.050Z,98926.73
2024-01-06T19:02:20.771Z,98926.06
2024-01-06T19:04:49.353Z,98920.21
2024-01-06T19:07:21.449Z,98932.23
2024-01-06T19:09:50.662Z,98927.02
2024-01-06T19:12:19.641Z,98922.20
2024-01-06T19:14:48.373Z,98920.52
2024-01-06T19:17:16.981Z,98917.30
2024-01-06T19:19:45.800Z,98910.30
2024-01-06T19:22:14.800Z,98904.52
2024-01-06T19:24:44.291Z,98895.50
2024-01-06T19:27:12.894Z,98899.38
2024-01-06T19:29:44.519Z,98895.02
2024-01-06T19:32:13.934Z,98891.19
2024-01-06T19:34:43.050Z,98882.60
2024-01-06T19:37:11.865Z,98892.11
2024-01-06T19:39:40.521Z,98882.45
2024-01-06T19:42:09.195Z,98878.66
2024-01-06T19:44:39.499Z,98878.77
2024-01-06T19:47:09.766Z,98879.98
2024-01-06T19:49:38.620Z,98880.25
2024-01-06T19:52:07.538Z,98881.86
2024-01-06T19:54:37.957Z,98885.63
2024-01-06T19:57:06.837Z,98904.98
2024-01-06T19:59:35.361Z,98923.25
2024-01-06T20:02:03.951Z,98940.77
2024-01-06T20:04:32.529Z,98942.21
2024-01-06T20:07:01.773Z,98931.67
2024-01-06T20:09:30.475Z,98926.45
2024-01-06T20:11:59.138Z,98935.08
2024-01-06T20:14:27.813Z,98933.29
2024-01-06T20:16:57.183Z,98925.67
2024-01-06T20:19:26.992Z,98914.71
2024-01-06T20:21:56.762Z,98906.59
2024-01-06T20:24:26.190Z,98891.43
2024-01-06T20:26:57.758Z,98867.34
2024-01-06T20:29:27.357Z,98868.19
2024-01-06T20:31:56.384Z,98864.98
2024-01-06T20:34:28.251Z,98842.02
2024-01-06T20:36:57.705Z,98827.64
2024-01-06T20:39:26.388Z,98826.11
2024-01-06T20:41:55.001Z,98822.91
2024-01-06T20:44:23.750Z,98831.51
2024-01-06T20:46:54.261Z,98842.13
2024-01-06T20:49:25.018Z,98831.27
2024-01-06T20:51:54.754Z,98827.23
2024-01-06T20:54:24.644Z,98813.71
2024-01-06T20:56:56.150Z,98830.21
2024-01-06T20:59:24.989Z,98832.83
2024-01-06T21:01:54.360Z,98835.30
2024-01-06T21:04:25.705Z,98838.53
2024-01-06T21:06:54.369Z,98839.08
2024-01-06T21:09:27.178Z,98839.52
2024-01-06T21:11:56.135Z,98832.93
2024-01-06T21:14:24.662Z,98831.90
2024-01-06T21:16:53.324Z,98823.40
2024-01-06T21:19:23.883Z,98830.92
2024-01-06T21:21:53.474Z,98855.23
2024-01-06T21:24:26.179Z,98857.41
2024-01-06T21:26:55.283Z,98864.06
2024-01-06T21:29:24.251Z,98860.52
2024-01-06T21:31:52.832Z,98858.88
2024-01-06T21:34:25.506Z,98844.63
2024-01-06T21:36:54.792Z,98857.21
2024-01-06T21:39:23.817Z,98862.20
2024-01-06T21:55:15.154Z,98819.39
2024-01-06T21:57:44.580Z,98834.23
2024-01-06T22:00:17.149Z,98852.44
2024-01-06T22:02:46.252Z,98863.60
2024-01-06T22:05:14.887Z,98867.80
2024-01-06T22:07:43.533Z,98852.11
2024-01-06T22:10:12.099Z,98844.55
2024-01-06T22:12:40.781Z,98850.15
2024-01-06T22:15:10.187Z,98849.52
2024-01-06T22:17:38.824Z,98850.82
2024-01-06T22:20:09.092Z,98845.33
2024-01-06T22:22:37.618Z,98849.00
2024-01-06T22:25:06.942Z,98843.47
2024-01-06T22:27:35.535Z,98838.85
2024-01-06T22:30:07.847Z,98835.64
2024-01-06T22:32:37.012Z,98841.10
2024-01-06T22:35:06.326Z,98837.54
2024-01-06T22:37:34.970Z,98830.29
2024-01-06T22:40:06.315Z,98816.39
2024-01-06T22:42:34.905Z,98824.24
2024-01-06T22:45:03.649Z,98824.91
2024-01-06T22:47:32.492Z,98820.98
2024-01-06T22:50:01.049Z,98816.52
2024-01-06T22:52:29.663Z,98824.97
2024-01-06T22:54:58.280Z,98826.00
2024-01-06T22:57:27.051Z,98829.56
2024-01-06T22:59:55.674Z,98822.02
2024-01-06T23:02:24.440Z,98822.54
2024-01-06T23:04:54.782Z,98824.48
2024-01-06T23:07:24.191Z,98835.20
2024-01-06T23:09:53.095Z,98834.64
2024-01-06T23:12:22.137Z,98838.81
2024-01-06T23:14:50.736Z,98840.95
2024-01-06T23:17:19.369Z,98829.61
2024-01-06T23:19:48.168Z,98834.08
2024-01-06T23:22:16.902Z,98832.32
2024-01-06T23:24:45.598Z,98823.77
2024-01-06T23:27:14.088Z,98821.62
2024-01-06T23:29:42.608Z,98822.59
2024-01-06T23:32:11.186Z,98826.69
2024-01-06T23:34:42.943Z,98823.98
2024-01-06T23:37:12.173Z,98840.58
2024-01-06T23:39:40.827Z,98839.50
2024-01-06T23:42:10.692Z,98825.96
2024-01-06T23:44:40.718Z,98826.08
2024-01-06T23:47:09.676Z,98824.11
2024-01-06T23:49:38.329Z,98829.88
2024-01-06T23:52:07.038Z,98837.78
2024-01-06T23:54:42.870Z,98831.77
2024-01-06T23:57:11.385Z,98836.80
2024-01-06T23:59:42.162Z,98839.09
